• Join FlightAware (Why Join?)
  • Login
  • US Flag 
11:12AM EST


 

Airport Tracker/Info


-or-


 

Live Flight TrackerFlight Track Log ✈ N2317S ✈ 25-Jun-2013 ✈ KOXC - KBTV

Flight Track Log - Related Links

Times and Time Zones

All times are in EDT time to prevent confusion due to time zone crossing. See the N2317S flight status page for this flight to view local times or setup timezone preferences in your user account.

Time Position Orientation Groundspeed Altitude Reporting Facility
EDT Latitude Longitude Course Direction KTS MPH feet Rate Location/Type
10:04AM 42.1481 -73.1569 360° North 181 208 11,500  Level Boston Center
10:05AM 42.1981 -73.1575 360° North 181 208 11,500  Level Boston Center
10:06AM 42.2503 -73.1553 North 181 208 11,500  Level Boston Center
10:07AM 42.3022 -73.1558 360° North 176 203 11,500  Level Boston Center
10:08AM 42.3503 -73.1564 360° North 176 203 11,500  Level Boston Center
10:09AM 42.4106 -73.1572 359° North 176 203 11,500  Level Boston Center
10:10AM 42.4564 -73.1578 359° North 176 203 11,500  Level Boston Center
10:11AM 42.5128 -73.1556 North 176 203 11,500  Level Boston Center
10:12AM 42.5608 -73.1561 360° North 182 209 11,500  Level Boston Center
10:13AM 42.6169 -73.1567 360° North 177 204 11,500  Level Boston Center
10:14AM 42.6775 -73.1544 North 177 204 11,500  Level Boston Center
10:15AM 42.7253 -73.1550 360° North 177 204 11,500  Level Boston Center
10:16AM 42.7836 -73.1531 North 177 204 11,500  Level Boston Center
10:17AM 42.8294 -73.1536 359° North 177 204 11,500  Level Boston Center
10:18AM 42.8858 -73.1542 360° North 177 204 11,500  Level Boston Center
10:19AM 42.9294 -73.1603 354° North 177 204 11,500  Level Boston Center
10:20AM 42.9878 -73.1694 353° North 182 209 11,500  Level Boston Center
10:21AM 43.0336 -73.1758 354° North 182 209 11,500  Level Boston Center
10:22AM 43.0900 -73.1850 353° North 182 209 11,500  Level Boston Center
10:23AM 43.1336 -73.1911 354° North 182 209 11,500  Level Boston Center
10:24AM 43.1878 -73.1975 355° North 182 209 11,500  Level Boston Center
10:25AM 43.2336 -73.2067 352° North 182 209 11,500  Level Boston Center
10:26AM 43.3003 -73.2161 354° North 182 209 11,500  Level Boston Center
10:27AM 43.3503 -73.2194 357° North 182 209 11,500  Level Boston Center
10:28AM 43.4022 -73.2231 357° North 182 209 11,500  Level Boston Center
10:29AM 43.4522 -73.2294 355° North 182 209 11,500  Level Boston Center
10:30AM 43.5042 -73.2331 357° North 182 209 11,500  Level Boston Center
10:31AM 43.5564 -73.2281 North 182 209 11,500  Level Boston Center
10:32AM 43.6106 -73.2200 North 182 209 11,500  Level Boston Center
10:33AM 43.6628 -73.2178 North 182 209 11,500 -60 Level Boston Center
10:34AM 43.7108 -73.2156 North 187 215 11,400 -60 Descending Boston Center
10:35AM 43.7650 -73.2133 North 187 215 11,400 -180 Level Boston Center
10:36AM 43.8192 -73.2083 North 192 221 11,100 -420 Descending Boston Center
10:37AM 43.8775 -73.2119 357° North 192 221 10,600 -600 Descending Boston Center
10:38AM 43.9294 -73.2156 357° North 192 221 10,000 -660 Descending Boston Center
10:39AM 43.9836 -73.2250 353° North 192 221 9,300 -660 Descending Boston Center
10:40AM 44.0336 -73.2314 355° North 192 221 8,700 -600 Descending Boston Center
10:41AM 44.0836 -73.2436 350° North 182 209 8,100 -600 Descending Boston Center
10:42AM 44.1333 -73.2528 352° North 182 209 7,500 -600 Descending Boston Center
10:43AM 44.1814 -73.2622 352° North 177 204 6,900 -600 Descending Boston Center
10:44AM 44.2272 -73.2628 360° North 177 204 6,300 -540 Descending Boston Center
10:45AM 44.2750 -73.2606 North 177 204 5,900 -420 Descending Boston Center
10:46AM 44.3167 -73.2611 359° North 160 184 5,500 -540 Descending Boston Center
10:47AM 44.3625 -73.2589 North 160 184 4,900 -660 Descending Boston Center
10:48AM 44.4003 -73.2450 15° North 155 178 4,200 -720 Descending Boston Center
10:50AM 44.4307 -73.2014 46° Northeast  Level FlightAware Approximate
10:57AM 44.4667 -73.1500 North  Level FlightAware Approximate
10:58AM 44.4719 -73.1533 North  Level Estimated
10:59AM 44.4667 -73.1500 North  Level FlightAware Approximate
11:00AM 44.4719 -73.1533 North  Level Estimated
11:01AM 44.4667 -73.1500 North  Level FlightAware Approximate
11:02AM 44.4719 -73.1533 North  Level Estimated
11:03AM 44.4667 -73.1500 North  Level FlightAware Approximate
11:04AM 44.4719 -73.1533 North  Level Estimated
11:05AM 44.4667 -73.1500 North  Level FlightAware Approximate
11:06AM 44.4719 -73.1533 North  Level Estimated
11:07AM 44.4667 -73.1500 North  Level FlightAware Approximate
11:08AM 44.4719 -73.1533 North  Level Estimated
11:09AM 44.4667 -73.1500 North  Level FlightAware Approximate